Time;durP1;ratioP1;P1;durP2;ratioP2;P2;SDS_P1;SDS_P2;PMS_P1;PMS_P2;Temp;Humidity;BMP_temperature;BMP_pressure;BME280_temperature;BME280_humidity;BME280_pressure;Samples;Min_cycle;Max_cycle;Signal;HPM_P1;HPM_P2
2023/09/25 00:01:44;;;;;;;9.77;2.40;;;;;;;12.45;100.00;101861.81;4916145;29;20125;-96
2023/09/25 00:04:09;;;;;;;7.00;2.78;;;;;;;12.35;100.00;101863.44;4911712;29;20035;-96
2023/09/25 00:06:36;;;;;;;6.75;2.30;;;;;;;12.31;100.00;101857.28;4936603;29;20040;-96
2023/09/25 00:09:02;;;;;;;9.05;2.80;;;;;;;12.33;100.00;101863.56;4940309;29;20117;-96
2023/09/25 00:11:27;;;;;;;8.55;3.83;;;;;;;12.26;100.00;101860.34;4935501;29;20506;-80
2023/09/25 00:13:53;;;;;;;9.98;3.10;;;;;;;12.25;100.00;101855.00;4948841;28;20039;-80
2023/09/25 00:16:18;;;;;;;5.10;2.53;;;;;;;12.29;100.00;101856.53;4924821;29;20024;-80
2023/09/25 00:18:44;;;;;;;7.32;3.20;;;;;;;12.31;100.00;101851.78;4947962;28;20122;-80
2023/09/25 00:21:09;;;;;;;5.18;1.98;;;;;;;12.26;100.00;101857.59;4942372;29;20032;-80
2023/09/25 00:23:36;;;;;;;6.45;2.80;;;;;;;12.30;100.00;101861.03;4924104;29;20153;-81
2023/09/25 00:26:08;;;;;;;10.02;4.20;;;;;;;12.26;100.00;101873.22;4933367;29;20106;-82
2023/09/25 00:28:35;;;;;;;10.15;3.05;;;;;;;12.15;100.00;101871.22;4943643;28;20023;-81
2023/09/25 00:31:00;;;;;;;6.88;1.92;;;;;;;12.17;100.00;101872.00;4952519;28;20035;-81
2023/09/25 00:33:26;;;;;;;6.95;2.25;;;;;;;12.13;100.00;101868.59;4933563;29;20050;-81
2023/09/25 00:35:53;;;;;;;5.95;1.80;;;;;;;12.09;100.00;101871.66;4943246;28;20141;-81
2023/09/25 00:38:19;;;;;;;4.05;1.85;;;;;;;12.16;100.00;101878.47;4919066;29;20031;-81
2023/09/25 00:40:45;;;;;;;3.22;1.30;;;;;;;12.11;100.00;101873.28;4932857;29;20038;-81
2023/09/25 00:43:14;;;;;;;5.53;1.80;;;;;;;12.02;100.00;101876.69;4948997;29;20036;-81
2023/09/25 00:45:41;;;;;;;6.40;1.90;;;;;;;12.04;100.00;101873.84;4949907;29;20386;-81
2023/09/25 00:48:15;;;;;;;7.30;1.35;;;;;;;11.93;100.00;101867.19;4938429;28;20023;-81
2023/09/25 00:50:42;;;;;;;7.60;1.70;;;;;;;11.91;100.00;101877.41;4950268;29;20490;-81
2023/09/25 00:53:09;;;;;;;4.05;1.60;;;;;;;11.93;100.00;101875.44;4948255;28;20037;-81
2023/09/25 00:55:35;;;;;;;5.28;1.73;;;;;;;11.85;100.00;101860.44;4927192;29;20570;-81
2023/09/25 00:58:01;;;;;;;5.22;1.50;;;;;;;11.84;100.00;101869.66;4950938;28;20434;-80
2023/09/25 01:00:27;;;;;;;4.03;1.83;;;;;;;11.76;100.00;101856.47;4950522;28;20049;-81
2023/09/25 01:02:52;;;;;;;5.57;1.90;;;;;;;11.80;100.00;101862.63;4933047;29;20390;-81
2023/09/25 01:05:19;;;;;;;4.18;1.65;;;;;;;11.78;100.00;101866.34;4942132;28;20174;-81
2023/09/25 01:07:44;;;;;;;6.93;3.08;;;;;;;11.72;100.00;101857.66;4931590;28;20514;-80
2023/09/25 01:10:14;;;;;;;4.53;1.80;;;;;;;11.68;100.00;101867.97;4930166;29;20063;-81
2023/09/25 01:12:41;;;;;;;12.52;6.93;;;;;;;11.71;100.00;101867.75;4950348;28;20054;-81
2023/09/25 01:15:07;;;;;;;13.15;7.07;;;;;;;11.54;100.00;101868.91;4946889;29;20039;-81
2023/09/25 01:17:33;;;;;;;6.50;2.13;;;;;;;11.56;100.00;101869.69;4948440;29;20469;-81
2023/09/25 01:20:01;;;;;;;7.07;3.00;;;;;;;11.61;100.00;101871.22;4946593;28;20118;-81
2023/09/25 01:22:26;;;;;;;6.32;1.70;;;;;;;11.54;100.00;101866.16;4950009;28;20517;-81
2023/09/25 01:24:52;;;;;;;3.88;2.38;;;;;;;11.61;100.00;101874.88;4951846;28;20144;-82
2023/09/25 01:27:17;;;;;;;5.18;2.03;;;;;;;11.58;100.00;101872.31;4946440;29;20030;-81
2023/09/25 01:29:43;;;;;;;5.25;2.20;;;;;;;11.56;100.00;101868.81;4951146;28;20097;-81
2023/09/25 01:32:08;;;;;;;7.28;1.98;;;;;;;11.56;100.00;101871.56;4937094;29;20039;-81
2023/09/25 01:34:37;;;;;;;4.90;1.92;;;;;;;11.48;100.00;101876.63;4932610;29;20399;-81
2023/09/25 01:37:05;;;;;;;6.97;2.00;;;;;;;11.48;100.00;101858.34;4941055;29;20040;-81
2023/09/25 01:39:35;;;;;;;8.13;1.90;;;;;;;11.54;100.00;101868.00;4952612;28;20483;-81
2023/09/25 01:42:01;;;;;;;4.55;2.13;;;;;;;11.52;100.00;101859.88;4951548;29;20107;-81
2023/09/25 01:44:26;;;;;;;3.13;1.90;;;;;;;11.54;100.00;101868.00;4951414;29;20026;-81
2023/09/25 01:46:52;;;;;;;6.18;2.03;;;;;;;11.53;100.00;101872.63;4921759;29;20399;-80
2023/09/25 01:49:17;;;;;;;5.78;1.73;;;;;;;11.50;100.00;101858.25;4949517;28;20089;-81
2023/09/25 01:51:46;;;;;;;4.13;1.95;;;;;;;11.58;100.00;101864.09;4919511;29;20031;-81
2023/09/25 01:54:11;;;;;;;4.47;1.60;;;;;;;11.51;100.00;101860.88;4937773;29;20491;-80
2023/09/25 01:56:37;;;;;;;2.47;1.35;;;;;;;11.50;100.00;101864.59;4921844;29;20192;-81
2023/09/25 01:59:02;;;;;;;4.00;1.80;;;;;;;11.48;100.00;101863.81;4952036;28;20491;-81
2023/09/25 02:01:28;;;;;;;4.25;1.70;;;;;;;11.44;100.00;101856.78;4950735;29;20067;-81
2023/09/25 02:03:53;;;;;;;3.10;1.65;;;;;;;11.45;100.00;101858.53;4938621;29;20043;-81
2023/09/25 02:06:18;;;;;;;8.60;2.25;;;;;;;11.46;100.00;101865.81;4949608;28;20479;-81
2023/09/25 02:08:44;;;;;;;5.50;2.05;;;;;;;11.45;100.00;101857.69;4966356;28;20059;-81
2023/09/25 02:11:09;;;;;;;4.55;1.58;;;;;;;11.43;100.00;101856.88;4933186;28;20410;-80
2023/09/25 02:13:35;;;;;;;3.97;1.80;;;;;;;11.51;100.00;101855.41;4970996;28;20179;-81
2023/09/25 02:16:00;;;;;;;4.78;1.70;;;;;;;11.47;100.00;101850.22;4938145;28;20043;-82
2023/09/25 02:18:25;;;;;;;4.43;1.90;;;;;;;11.40;100.00;101852.50;4940642;28;20037;-81
2023/09/25 02:20:51;;;;;;;3.85;1.63;;;;;;;11.41;100.00;101846.00;4955439;28;20077;-81
2023/09/25 02:23:19;;;;;;;5.90;1.77;;;;;;;11.33;100.00;101856.59;4940372;28;20093;-81
2023/09/25 02:25:44;;;;;;;4.65;1.70;;;;;;;11.39;100.00;101850.72;4954009;28;20110;-80
2023/09/25 02:28:10;;;;;;;2.78;1.58;;;;;;;11.42;100.00;101855.13;4965753;28;20117;-80
2023/09/25 02:30:35;;;;;;;3.17;1.73;;;;;;;11.35;100.00;101850.06;4944982;28;20039;-82
2023/09/25 02:33:01;;;;;;;2.38;1.60;;;;;;;11.40;100.00;101845.13;4924304;28;20034;-81
2023/09/25 02:35:26;;;;;;;5.78;2.08;;;;;;;11.39;100.00;101839.75;4923340;28;20032;-81
2023/09/25 02:37:52;;;;;;;2.33;1.67;;;;;;;11.36;100.00;101839.94;4969688;28;20015;-81
2023/09/25 02:40:17;;;;;;;4.13;1.95;;;;;;;11.36;100.00;101846.34;4949377;28;20126;-81
2023/09/25 02:42:45;;;;;;;3.97;1.75;;;;;;;11.39;100.00;101853.47;4934438;28;20023;-80
2023/09/25 02:45:10;;;;;;;4.00;2.05;;;;;;;11.38;100.00;101857.22;4944437;28;20043;-81
2023/09/25 02:47:36;;;;;;;4.03;2.13;;;;;;;11.38;100.00;101860.81;4948707;28;20086;-81
2023/09/25 02:50:02;;;;;;;4.25;2.00;;;;;;;11.35;100.00;101855.53;4967596;28;20094;-81
2023/09/25 02:52:28;;;;;;;3.22;1.77;;;;;;;11.35;100.00;101857.41;4955201;28;20026;-81
2023/09/25 02:54:54;;;;;;;5.07;1.80;;;;;;;11.32;100.00;101852.13;4969674;28;20101;-81
2023/09/25 02:57:19;;;;;;;3.15;1.70;;;;;;;11.38;100.00;101852.59;4938127;28;20494;-80
2023/09/25 02:59:45;;;;;;;8.45;2.22;;;;;;;11.36;100.00;101857.31;4964544;28;20471;-81
2023/09/25 03:02:10;;;;;;;2.42;1.80;;;;;;;11.34;100.00;101859.25;4951274;28;20038;-81
2023/09/25 03:04:37;;;;;;;8.05;2.00;;;;;;;11.39;100.00;101868.03;4971318;28;20085;-81
2023/09/25 03:07:02;;;;;;;4.72;1.80;;;;;;;11.39;100.00;101865.31;4968916;28;20039;-81
2023/09/25 03:09:28;;;;;;;6.07;2.25;;;;;;;11.32;100.00;101854.88;4954716;28;20089;-81
2023/09/25 03:11:53;;;;;;;4.45;1.90;;;;;;;11.30;100.00;101852.22;4951786;28;20110;-81
2023/09/25 03:14:19;;;;;;;5.43;2.50;;;;;;;11.30;100.00;101863.19;4965662;28;20379;-80
2023/09/25 03:16:45;;;;;;;5.40;2.17;;;;;;;11.29;100.00;101850.44;4950746;28;20509;-80
2023/09/25 03:19:10;;;;;;;3.25;2.20;;;;;;;11.30;100.00;101854.09;4970147;28;20030;-81
2023/09/25 03:21:36;;;;;;;4.28;2.00;;;;;;;11.29;100.00;101855.94;4922706;28;20026;-81
2023/09/25 03:24:01;;;;;;;3.63;1.98;;;;;;;11.25;100.00;101854.38;4915894;28;20027;-81
2023/09/25 03:26:26;;;;;;;11.48;2.05;;;;;;;11.20;100.00;101854.69;4966165;28;20046;-80
2023/09/25 03:28:52;;;;;;;5.53;2.00;;;;;;;11.15;100.00;101851.38;4969833;28;20117;-81
2023/09/25 03:31:17;;;;;;;4.80;1.77;;;;;;;11.15;100.00;101858.69;4921588;28;20049;-81
2023/09/25 03:33:46;;;;;;;3.90;2.30;;;;;;;11.15;100.00;101864.19;4966237;28;20030;-81
2023/09/25 03:36:12;;;;;;;6.13;2.47;;;;;;;11.14;100.00;101859.69;4949294;28;20046;-81
2023/09/25 03:38:37;;;;;;;7.90;2.88;;;;;;;11.07;100.00;101852.84;4970995;28;20398;-81
2023/09/25 03:41:03;;;;;;;3.00;1.75;;;;;;;11.00;100.00;101855.09;4948875;29;20041;-95
2023/09/25 03:43:29;;;;;;;6.95;2.17;;;;;;;11.03;100.00;101861.28;4942371;28;20046;-95
2023/09/25 03:45:56;;;;;;;5.30;1.92;;;;;;;11.01;100.00;101854.13;4941976;29;20031;-95
2023/09/25 03:48:23;;;;;;;3.00;1.90;;;;;;;11.01;100.00;101855.00;4951664;28;20027;-96
2023/09/25 03:50:51;;;;;;;7.32;2.20;;;;;;;10.99;100.00;101858.84;4945554;28;20034;-96
2023/09/25 03:53:16;;;;;;;4.43;2.10;;;;;;;10.95;100.00;101854.53;4952713;28;20042;-96
2023/09/25 03:55:42;;;;;;;3.05;1.67;;;;;;;10.95;100.00;101860.91;4968791;28;20110;-96
2023/09/25 03:58:09;;;;;;;5.13;2.00;;;;;;;10.92;100.00;101850.13;4940021;28;20034;-96
2023/09/25 04:00:36;;;;;;;4.63;2.00;;;;;;;10.93;100.00;101859.22;4939364;29;20033;-95
2023/09/25 04:03:01;;;;;;;5.47;2.15;;;;;;;10.91;100.00;101862.06;4955172;28;20027;-95
2023/09/25 04:05:27;;;;;;;4.10;1.75;;;;;;;10.93;100.00;101865.56;4918996;28;20030;-93
2023/09/25 04:07:53;;;;;;;4.22;1.80;;;;;;;10.95;100.00;101860.91;4943749;28;20050;-94
2023/09/25 04:10:19;;;;;;;4.25;1.85;;;;;;;10.92;100.00;101868.41;4929449;28;20118;-95
2023/09/25 04:12:44;;;;;;;3.42;2.10;;;;;;;10.94;100.00;101870.09;4934589;28;20118;-93
2023/09/25 04:15:13;;;;;;;4.97;2.05;;;;;;;10.89;100.00;101871.34;4939838;29;20038;-94
2023/09/25 04:17:43;;;;;;;5.30;2.05;;;;;;;10.88;100.00;101862.25;4960699;28;20108;-96
2023/09/25 04:20:25;;;;;;;4.47;1.85;;;;;;;11.00;100.00;101871.53;4944472;28;20050;-96
2023/09/25 04:22:53;;;;;;;3.22;1.95;;;;;;;10.91;100.00;101874.88;4932279;29;20493;-92
2023/09/25 04:25:20;;;;;;;5.15;2.30;;;;;;;10.99;100.00;101872.53;4964406;28;20120;-96
2023/09/25 04:27:50;;;;;;;2.72;1.95;;;;;;;10.90;100.00;101876.72;4925552;29;20027;-94
2023/09/25 04:30:17;;;;;;;4.03;2.40;;;;;;;10.87;100.00;101865.09;4954969;28;20031;-96
2023/09/25 04:32:48;;;;;;;10.57;2.08;;;;;;;10.89;100.00;101876.81;4940885;28;20030;-95
2023/09/25 04:35:15;;;;;;;5.15;2.03;;;;;;;10.84;100.00;101871.66;4972852;28;20031;-91
2023/09/25 04:37:42;;;;;;;6.82;2.20;;;;;;;10.96;100.00;101870.88;4957399;28;20054;-95
2023/09/25 04:40:15;;;;;;;4.05;2.03;;;;;;;10.85;100.00;101868.84;4937266;28;20462;-93
2023/09/25 04:42:56;;;;;;;6.63;3.17;;;;;;;10.92;100.00;101876.63;4986403;28;20049;-94
2023/09/25 04:45:24;;;;;;;5.32;2.55;;;;;;;10.91;100.00;101877.63;4929093;28;20019;-95
2023/09/25 04:47:55;;;;;;;11.45;1.98;;;;;;;10.92;100.00;101879.38;4940373;28;20122;-90
2023/09/25 04:50:23;;;;;;;4.57;1.90;;;;;;;10.95;100.00;101880.09;4946943;29;20031;-92
2023/09/25 04:52:49;;;;;;;2.55;2.05;;;;;;;10.97;100.00;101885.44;4941924;28;20400;-88
2023/09/25 04:55:14;;;;;;;8.18;2.70;;;;;;;10.99;100.00;101878.03;4960716;28;20114;-93
2023/09/25 04:57:45;;;;;;;10.27;2.20;;;;;;;10.94;100.00;101874.69;4923297;29;20039;-94
2023/09/25 05:00:17;;;;;;;10.40;1.90;;;;;;;10.96;100.00;101870.88;4966564;28;20066;-94
2023/09/25 05:02:45;;;;;;;5.05;2.17;;;;;;;11.01;100.00;101876.91;4945496;28;20033;-92
2023/09/25 05:05:11;;;;;;;5.45;2.10;;;;;;;10.96;100.00;101872.72;4948630;28;20023;-95
2023/09/25 05:08:00;;;;;;;3.35;2.22;;;;;;;10.97;100.00;101883.59;4955238;29;20075;-93
2023/09/25 05:10:27;;;;;;;7.95;2.20;;;;;;;10.99;100.00;101876.16;4953701;28;20042;-94
2023/09/25 05:12:54;;;;;;;7.45;1.98;;;;;;;10.97;100.00;101879.97;4946967;29;20174;-94
2023/09/25 05:15:20;;;;;;;4.10;2.20;;;;;;;10.91;100.00;101875.75;4947958;29;20063;-93
2023/09/25 05:17:46;;;;;;;5.53;2.20;;;;;;;10.97;100.00;101877.22;4944556;29;20494;-96
2023/09/25 05:20:18;;;;;;;6.22;2.22;;;;;;;10.92;100.00;101883.00;4961262;28;20086;-94
2023/09/25 05:22:49;;;;;;;6.20;2.22;;;;;;;10.90;100.00;101876.72;4959667;28;20043;-94
2023/09/25 05:25:17;;;;;;;4.22;2.45;;;;;;;10.85;100.00;101881.63;4972522;28;20039;-95
2023/09/25 05:27:47;;;;;;;4.20;2.10;;;;;;;10.87;100.00;101889.75;4963813;29;20118;-94
2023/09/25 05:30:13;;;;;;;6.03;2.22;;;;;;;10.76;100.00;101874.88;4961843;29;20062;-94
2023/09/25 05:32:41;;;;;;;9.32;2.25;;;;;;;10.78;100.00;101881.13;4950980;29;20031;-93
2023/09/25 05:35:10;;;;;;;4.82;2.60;;;;;;;10.71;100.00;101885.25;4928432;29;20034;-93
2023/09/25 05:37:37;;;;;;;3.88;2.20;;;;;;;10.77;100.00;101886.72;4958979;28;20034;-93
2023/09/25 05:40:05;;;;;;;6.03;2.50;;;;;;;10.71;100.00;101889.84;4948441;29;20031;-94
2023/09/25 05:42:31;;;;;;;5.25;2.28;;;;;;;10.76;100.00;101893.19;4937906;29;20039;-93
2023/09/25 05:44:58;;;;;;;5.03;2.53;;;;;;;10.82;100.00;101890.94;4928395;29;20498;-95
2023/09/25 05:47:25;;;;;;;9.38;2.85;;;;;;;10.79;100.00;101891.13;4938995;29;20043;-95
2023/09/25 05:49:51;;;;;;;6.72;2.78;;;;;;;10.78;100.00;101889.34;4936076;29;20101;-95
2023/09/25 05:52:17;;;;;;;12.50;2.75;;;;;;;10.92;100.00;101896.72;4943511;29;20035;-96
2023/09/25 05:54:43;;;;;;;5.97;2.55;;;;;;;10.94;100.00;101896.63;4926186;29;20038;-93
2023/09/25 05:57:09;;;;;;;7.63;2.80;;;;;;;10.93;100.00;101900.31;4939478;29;20040;-93
2023/09/25 05:59:36;;;;;;;6.57;2.80;;;;;;;10.96;100.00;101908.34;4936283;29;20058;-94
2023/09/25 06:02:04;;;;;;;4.68;2.30;;;;;;;10.93;100.00;101897.59;4940334;29;20062;-90
2023/09/25 06:04:31;;;;;;;3.20;2.08;;;;;;;10.98;100.00;101915.47;4958883;28;20027;-90
2023/09/25 06:06:56;;;;;;;3.55;2.58;;;;;;;11.01;100.00;101911.69;4926268;29;20070;-91
2023/09/25 06:09:23;;;;;;;3.95;2.15;;;;;;;11.03;100.00;101906.97;4941885;29;20063;-91
2023/09/25 06:11:49;;;;;;;3.78;2.33;;;;;;;11.08;100.00;101915.78;4920636;29;20043;-91
2023/09/25 06:14:14;;;;;;;6.45;2.40;;;;;;;11.05;100.00;101905.00;4928818;29;20035;-91
2023/09/25 06:16:41;;;;;;;5.25;2.72;;;;;;;11.14;100.00;101906.28;4947593;29;20023;-94
2023/09/25 06:19:08;;;;;;;7.90;2.60;;;;;;;11.09;100.00;101912.06;4935157;29;20114;-92
2023/09/25 06:21:34;;;;;;;3.65;2.30;;;;;;;11.14;100.00;101900.81;4949428;28;20035;-90
2023/09/25 06:23:59;;;;;;;4.70;2.80;;;;;;;11.25;100.00;101911.97;4942186;29;20031;-92
2023/09/25 06:26:27;;;;;;;9.13;3.10;;;;;;;11.27;100.00;101912.72;4943390;28;20459;-91
2023/09/25 06:28:53;;;;;;;6.20;2.47;;;;;;;11.38;100.00;101909.31;4939674;29;20157;-91
2023/09/25 06:31:19;;;;;;;8.38;2.42;;;;;;;11.48;100.00;101912.28;4950212;29;20034;-91
2023/09/25 06:33:45;;;;;;;7.80;2.78;;;;;;;11.52;100.00;101914.72;4934386;28;20436;-91
2023/09/25 06:36:11;;;;;;;4.30;2.53;;;;;;;11.57;100.00;101912.56;4934748;28;20032;-91
2023/09/25 06:38:36;;;;;;;11.07;2.55;;;;;;;11.63;100.00;101913.16;4947578;29;20026;-89
2023/09/25 06:41:02;;;;;;;6.20;3.10;;;;;;;11.74;100.00;101911.47;4925887;29;20035;-91
2023/09/25 06:43:27;;;;;;;4.50;2.50;;;;;;;11.77;100.00;101919.50;4940043;29;20032;-90
2023/09/25 06:45:53;;;;;;;10.68;2.33;;;;;;;11.88;100.00;101912.38;4942999;29;20023;-91
2023/09/25 06:48:18;;;;;;;3.58;2.35;;;;;;;12.03;100.00;101918.72;4928423;29;20091;-91
2023/09/25 06:50:45;;;;;;;8.05;2.58;;;;;;;12.00;100.00;101907.94;4922494;29;20051;-93
2023/09/25 06:53:11;;;;;;;7.28;3.03;;;;;;;12.06;100.00;101905.66;4957161;28;20426;-91
2023/09/25 06:55:39;;;;;;;12.40;3.88;;;;;;;12.21;100.00;101913.84;4928469;29;20123;-96
2023/09/25 06:58:04;;;;;;;4.90;2.67;;;;;;;12.26;100.00;101914.41;4929035;29;20057;-90
2023/09/25 07:00:30;;;;;;;7.63;2.70;;;;;;;12.26;100.00;101901.53;4949683;28;20391;-92
2023/09/25 07:08:11;;;;;;;9.02;3.65;;;;;;;12.44;100.00;101914.97;4921170;29;20088;-95
2023/09/25 07:13:06;;;;;;;4.30;2.65;;;;;;;12.56;100.00;101905.91;4977245;28;20064;-89
2023/09/25 07:15:32;;;;;;;7.63;2.90;;;;;;;12.75;100.00;101910.94;5092878;24;20148;-89
2023/09/25 07:17:58;;;;;;;4.93;2.83;;;;;;;12.81;100.00;101907.75;4923821;29;20080;-94
2023/09/25 07:20:23;;;;;;;6.05;2.85;;;;;;;12.82;100.00;101912.28;4918140;29;20527;-90
2023/09/25 07:22:49;;;;;;;10.32;2.97;;;;;;;12.88;100.00;101911.81;4921251;29;20055;-94
2023/09/25 07:25:14;;;;;;;7.13;2.78;;;;;;;13.05;100.00;101910.63;4924311;29;20028;-96
2023/09/25 07:27:40;;;;;;;5.63;2.80;;;;;;;13.19;100.00;101916.97;4928215;29;20046;-93
2023/09/25 07:30:08;;;;;;;5.18;2.95;;;;;;;13.34;100.00;101921.38;4937509;29;20130;-91
2023/09/25 07:32:35;;;;;;;5.95;3.17;;;;;;;13.61;100.00;101912.06;4945463;29;20467;-96
2023/09/25 07:35:06;;;;;;;4.57;2.50;;;;;;;13.61;100.00;101923.06;4917705;29;20024;-95
2023/09/25 07:37:32;;;;;;;5.70;3.05;;;;;;;13.59;100.00;101920.44;4912370;29;20039;-96
2023/09/25 07:39:59;;;;;;;5.72;2.83;;;;;;;13.93;100.00;101917.00;4944493;29;20035;-96
2023/09/25 07:42:24;;;;;;;3.88;2.72;;;;;;;14.13;100.00;101918.22;4913619;29;20039;-91
2023/09/25 07:44:51;;;;;;;5.20;2.88;;;;;;;14.16;100.00;101916.09;4906388;29;20027;-91
2023/09/25 07:47:19;;;;;;;6.85;2.92;;;;;;;14.20;100.00;101924.13;4923356;29;20036;-91
2023/09/25 07:49:44;;;;;;;6.20;3.00;;;;;;;14.58;100.00;101917.50;4915691;29;20028;-92
2023/09/25 07:52:18;;;;;;;3.33;2.70;;;;;;;14.62;100.00;101924.56;4940954;29;20037;-93
2023/09/25 07:54:48;;;;;;;6.05;2.85;;;;;;;14.67;100.00;101914.03;4901996;29;20036;-92
2023/09/25 07:57:20;;;;;;;14.80;3.03;;;;;;;14.81;100.00;101919.34;4915216;29;20050;-92
2023/09/25 07:59:46;;;;;;;6.53;3.10;;;;;;;14.92;100.00;101912.97;4915128;29;20067;-91
2023/09/25 08:02:16;;;;;;;4.10;2.83;;;;;;;15.05;100.00;101926.63;4928929;29;20491;-92
2023/09/25 08:04:42;;;;;;;10.98;2.67;;;;;;;15.23;100.00;101922.38;4921590;29;20106;-91
2023/09/25 08:07:08;;;;;;;5.25;2.80;;;;;;;15.20;100.00;101919.88;4921306;29;20032;-96
2023/09/25 08:17:18;;;;;;;8.15;2.47;;;;;;;15.87;100.00;101914.38;5573178;23;20957;-95
2023/09/25 08:19:45;;;;;;;8.02;2.63;;;;;;;15.98;100.00;101920.75;4915000;29;20040;-94
2023/09/25 08:22:11;;;;;;;10.30;2.50;;;;;;;16.13;100.00;101913.06;4907453;29;20543;-79
2023/09/25 08:24:37;;;;;;;4.20;2.58;;;;;;;16.37;100.00;101916.59;4900384;29;20049;-80
2023/09/25 08:27:04;;;;;;;3.70;2.13;;;;;;;16.51;100.00;101914.38;4928385;29;20031;-80
2023/09/25 08:29:30;;;;;;;9.18;2.80;;;;;;;16.57;100.00;101912.09;4894230;29;20031;-80
2023/09/25 08:31:56;;;;;;;12.55;2.80;;;;;;;16.62;100.00;101907.91;4909674;29;20039;-80
2023/09/25 08:34:21;;;;;;;4.00;2.10;;;;;;;16.76;100.00;101908.56;4894965;29;20526;-80
2023/09/25 08:36:47;;;;;;;4.40;2.10;;;;;;;16.92;100.00;101908.97;4886452;29;20032;-81
2023/09/25 08:39:14;;;;;;;5.82;2.22;;;;;;;17.18;100.00;101912.16;4894907;29;20079;-80
2023/09/25 08:41:40;;;;;;;5.78;2.10;;;;;;;17.02;100.00;101912.69;4898483;29;20483;-81
2023/09/25 08:44:05;;;;;;;3.55;2.08;;;;;;;17.24;100.00;101913.50;4913638;29;20067;-81
2023/09/25 08:46:31;;;;;;;3.65;1.90;;;;;;;17.21;100.00;101911.88;4891348;29;20066;-81
2023/09/25 08:48:58;;;;;;;4.03;2.30;;;;;;;17.29;100.00;101907.56;4903210;29;20514;-81
2023/09/25 08:51:31;;;;;;;6.55;2.13;;;;;;;17.55;100.00;101910.72;4918681;29;20043;-81
2023/09/25 08:53:57;;;;;;;5.05;2.17;;;;;;;17.64;100.00;101907.97;4912686;29;20104;-79
2023/09/25 08:56:23;;;;;;;6.80;2.05;;;;;;;18.05;100.00;101913.44;4893115;29;20032;-79
2023/09/25 08:58:50;;;;;;;5.75;1.70;;;;;;;18.43;100.00;101911.72;4899950;29;20044;-79
2023/09/25 09:01:16;;;;;;;4.15;2.17;;;;;;;18.16;100.00;101906.91;4909988;29;20032;-79
2023/09/25 09:03:42;;;;;;;9.82;3.00;;;;;;;18.35;100.00;101897.72;4929576;29;20039;-79
2023/09/25 09:06:08;;;;;;;11.73;2.47;;;;;;;18.86;100.00;101906.72;4919222;29;20047;-80
2023/09/25 09:08:36;;;;;;;7.18;2.55;;;;;;;18.60;100.00;101909.22;4895488;29;20028;-81
2023/09/25 09:11:09;;;;;;;5.63;2.47;;;;;;;18.86;100.00;101907.59;4896451;29;20156;-81
2023/09/25 09:13:42;;;;;;;6.72;2.75;;;;;;;18.66;100.00;101901.19;4923748;29;20040;-79
2023/09/25 09:16:13;;;;;;;9.35;2.50;;;;;;;18.55;100.00;101901.34;4895945;29;20036;-80
2023/09/25 09:18:40;;;;;;;5.70;2.50;;;;;;;18.46;100.00;101897.56;4917995;29;20059;-78
2023/09/25 09:21:08;;;;;;;5.65;2.15;;;;;;;18.52;100.00;101885.84;4917589;29;20567;-80
2023/09/25 09:23:41;;;;;;;5.63;2.40;;;;;;;18.58;100.00;101878.84;4934378;28;20034;-79
2023/09/25 09:26:09;;;;;;;4.88;2.38;;;;;;;19.04;100.00;101888.25;4931419;29;20024;-79
2023/09/25 09:28:34;;;;;;;4.75;2.08;;;;;;;19.13;100.00;101874.47;4932918;29;20032;-79
2023/09/25 09:31:01;;;;;;;9.95;2.58;;;;;;;18.89;100.00;101878.66;4926171;29;20119;-80
2023/09/25 09:33:29;;;;;;;7.68;2.20;;;;;;;19.14;100.00;101888.22;4937774;29;20043;-80
2023/09/25 09:35:55;;;;;;;4.32;1.70;;;;;;;19.04;100.00;101881.84;4927325;29;20114;-78
2023/09/25 09:38:22;;;;;;;5.35;2.20;;;;;;;19.15;100.00;101878.88;4923747;29;20126;-78
2023/09/25 09:40:49;;;;;;;4.05;1.80;;;;;;;19.45;100.00;101877.69;4923904;29;20024;-78
2023/09/25 09:43:15;;;;;;;4.38;1.52;;;;;;;19.70;98.68;101880.75;4924813;29;20044;-78
2023/09/25 09:45:44;;;;;;;5.25;1.50;;;;;;;19.58;97.72;101882.88;4922484;29;20039;-77
2023/09/25 09:48:12;;;;;;;3.70;1.63;;;;;;;19.25;97.60;101876.91;4930859;29;20045;-79
2023/09/25 09:50:42;;;;;;;3.70;1.10;;;;;;;19.25;99.10;101879.69;4932527;29;20026;-77
2023/09/25 09:53:07;;;;;;;3.70;1.15;;;;;;;19.23;99.34;101881.75;4936255;29;20107;-79
2023/09/25 09:55:34;;;;;;;6.18;1.50;;;;;;;19.42;96.25;101886.31;4929443;29;20123;-79
2023/09/25 09:58:00;;;;;;;4.32;1.90;;;;;;;19.45;96.17;101874.91;4913217;29;20032;-80
2023/09/25 10:00:26;;;;;;;3.80;1.90;;;;;;;19.58;95.41;101874.53;4931343;29;20030;-80
2023/09/25 10:02:52;;;;;;;6.80;1.65;;;;;;;19.51;96.99;101880.88;4931440;29;20059;-79
2023/09/25 10:05:18;;;;;;;3.35;1.30;;;;;;;19.84;95.66;101879.38;4928307;29;20038;-79
2023/09/25 10:08:06;;;;;;;4.03;1.52;;;;;;;19.53;94.88;101881.56;4933937;29;20119;-79
2023/09/25 10:10:38;;;;;;;3.92;1.48;;;;;;;19.73;96.49;101882.34;4932196;29;20372;-80
2023/09/25 10:13:08;;;;;;;5.78;2.00;;;;;;;19.82;95.96;101876.75;4935133;29;20059;-79
2023/09/25 10:15:35;;;;;;;5.55;1.63;;;;;;;19.62;98.15;101884.28;4925531;29;20027;-80
2023/09/25 10:18:03;;;;;;;4.28;1.70;;;;;;;19.60;96.40;101886.38;4922585;29;20044;-80
2023/09/25 10:20:33;;;;;;;4.20;1.90;;;;;;;19.69;96.83;101890.09;4930070;29;20051;-80
2023/09/25 10:23:05;;;;;;;5.15;1.50;;;;;;;19.80;97.72;101886.28;4931927;29;20032;-80
2023/09/25 10:25:43;;;;;;;5.25;1.88;;;;;;;20.01;96.06;101897.09;4927282;29;20028;-80
2023/09/25 10:28:22;;;;;;;2.83;1.42;;;;;;;19.98;98.54;101895.50;4931541;29;20047;-80
2023/09/25 10:30:49;;;;;;;3.58;1.38;;;;;;;20.00;99.25;101899.00;4931827;29;20483;-80
2023/09/25 10:33:17;;;;;;;8.00;1.70;;;;;;;20.22;96.27;101898.66;4931046;29;20043;-80
2023/09/25 10:35:47;;;;;;;4.28;1.60;;;;;;;20.33;99.31;101890.09;4929793;29;20027;-80
2023/09/25 10:38:13;;;;;;;3.08;1.35;;;;;;;20.27;99.26;101885.19;4930857;29;20593;-80
2023/09/25 10:40:42;;;;;;;4.25;1.92;;;;;;;20.43;99.04;101876.97;4927865;29;20058;-89
2023/09/25 10:43:08;;;;;;;6.85;2.00;;;;;;;20.33;96.07;101879.84;4931514;29;20031;-80
2023/09/25 10:45:35;;;;;;;3.90;2.17;;;;;;;20.38;98.36;101879.34;4932230;29;20027;-80
2023/09/25 10:48:01;;;;;;;4.65;1.90;;;;;;;20.38;96.40;101880.25;4932254;29;20032;-80
2023/09/25 10:50:27;;;;;;;5.05;2.13;;;;;;;20.26;96.17;101887.06;4928936;29;20095;-80
2023/09/25 10:52:52;;;;;;;6.28;1.77;;;;;;;20.35;95.81;101882.47;4929539;29;20040;-80
2023/09/25 10:55:18;;;;;;;6.25;2.20;;;;;;;20.45;96.65;101883.25;4926155;29;20051;-80
2023/09/25 10:57:44;;;;;;;5.13;2.25;;;;;;;20.37;96.89;101872.06;4906401;29;20040;-80
2023/09/25 11:00:15;;;;;;;5.95;2.10;;;;;;;;;;4926158;29;20036;-80
2023/09/25 11:02:41;;;;;;;5.72;2.17;;;;;;;20.31;94.48;101872.69;4925349;29;20050;-80
2023/09/25 11:05:09;;;;;;;6.60;2.28;;;;;;;20.27;97.08;101874.94;4930316;29;20047;-80
2023/09/25 11:07:37;;;;;;;5.25;2.60;;;;;;;20.38;95.23;101877.47;4925406;29;20479;-80
2023/09/25 11:10:13;;;;;;;5.40;2.30;;;;;;;20.39;96.85;101869.97;4917984;29;20111;-80
2023/09/25 11:12:40;;;;;;;6.10;2.22;;;;;;;20.32;98.22;101866.97;4926154;29;20023;-80
2023/09/25 11:15:12;;;;;;;5.93;2.47;;;;;;;20.45;95.78;101858.22;4927831;29;20055;-80
2023/09/25 11:17:39;;;;;;;6.32;2.58;;;;;;;20.36;95.16;101862.81;4927022;29;20056;-80
2023/09/25 11:20:11;;;;;;;7.47;2.30;;;;;;;20.59;94.99;101872.56;4924241;29;20041;-80
2023/09/25 11:22:39;;;;;;;9.82;2.30;;;;;;;20.85;96.69;101861.47;4925480;29;20054;-80
2023/09/25 11:25:10;;;;;;;7.82;2.60;;;;;;;20.91;95.97;101869.19;4927662;29;20510;-80
2023/09/25 11:27:36;;;;;;;6.40;2.10;;;;;;;20.70;95.93;101864.84;4929738;29;20028;-80
2023/09/25 11:30:06;;;;;;;3.38;2.10;;;;;;;20.36;97.99;101876.72;4933588;29;20098;-81
2023/09/25 11:32:32;;;;;;;5.32;2.10;;;;;;;20.71;98.41;101871.28;4930981;29;20047;-80
2023/09/25 11:34:57;;;;;;;3.75;2.20;;;;;;;20.64;97.30;101864.63;4929594;29;20042;-80